createdAt,value
2023-06-08T00:02:26.637Z,16.00
2023-06-08T00:04:54.223Z,16.05
2023-06-08T00:07:23.327Z,16.09
2023-06-08T00:09:52.304Z,16.11
2023-06-08T00:12:19.393Z,16.21
2023-06-08T00:14:46.972Z,16.26
2023-06-08T00:17:15.040Z,16.16
2023-06-08T00:19:44.167Z,16.14
2023-06-08T00:22:15.027Z,16.17
2023-06-08T00:24:41.786Z,16.14
2023-06-08T00:27:10.192Z,16.20
2023-06-08T00:29:36.824Z,16.08
2023-06-08T00:32:04.042Z,16.09
2023-06-08T00:34:30.927Z,16.09
2023-06-08T00:36:57.529Z,16.08
2023-06-08T00:39:24.274Z,16.08
2023-06-08T00:41:50.935Z,15.97
2023-06-08T00:44:17.437Z,15.94
2023-06-08T00:46:44.372Z,15.76
2023-06-08T00:49:17.233Z,15.93
2023-06-08T00:51:44.910Z,15.95
2023-06-08T00:54:14.115Z,15.93
2023-06-08T00:56:42.194Z,15.98
2023-06-08T00:59:11.278Z,15.92
2023-06-08T01:01:40.221Z,15.96
2023-06-08T01:04:07.531Z,15.84
2023-06-08T01:06:40.664Z,15.90
2023-06-08T01:09:26.634Z,15.89
2023-06-08T01:12:02.277Z,15.80
2023-06-08T01:14:39.803Z,15.77
2023-06-08T01:17:13.869Z,15.72
2023-06-08T01:20:06.623Z,15.74
2023-06-08T01:22:53.084Z,15.72
2023-06-08T01:25:21.734Z,15.88
2023-06-08T01:27:49.444Z,15.99
2023-06-08T01:30:16.357Z,15.87
2023-06-08T01:32:45.060Z,15.74
2023-06-08T01:35:11.956Z,15.60
2023-06-08T01:37:46.510Z,15.65
2023-06-08T01:40:25.737Z,15.55
2023-06-08T01:42:55.018Z,15.43
2023-06-08T01:45:24.519Z,15.45
2023-06-08T01:47:58.086Z,15.29
2023-06-08T01:50:25.528Z,15.42
2023-06-08T01:52:52.503Z,15.59
2023-06-08T01:55:20.983Z,15.38
2023-06-08T01:57:48.264Z,15.43
2023-06-08T02:00:17.537Z,15.38
2023-06-08T02:02:45.896Z,15.29
2023-06-08T02:05:15.683Z,15.27
2023-06-08T02:07:43.306Z,15.41
2023-06-08T02:10:11.112Z,15.36
2023-06-08T02:12:38.275Z,15.48
2023-06-08T02:15:05.574Z,15.17
2023-06-08T02:17:34.767Z,15.32
2023-06-08T02:20:06.730Z,15.32
2023-06-08T02:22:36.638Z,15.33
2023-06-08T02:25:08.955Z,15.27
2023-06-08T02:27:38.207Z,15.37
2023-06-08T02:30:10.426Z,15.19
2023-06-08T02:32:38.219Z,15.18
2023-06-08T02:35:06.205Z,15.41
2023-06-08T02:37:34.275Z,15.47
2023-06-08T02:40:02.266Z,15.23
2023-06-08T02:42:29.148Z,15.22
2023-06-08T02:44:56.167Z,14.72
2023-06-08T02:47:22.817Z,14.62
2023-06-08T02:49:49.543Z,14.51
2023-06-08T02:52:16.173Z,14.48
2023-06-08T02:54:42.737Z,14.70
2023-06-08T02:57:09.542Z,14.88
2023-06-08T02:59:37.754Z,14.82
2023-06-08T03:02:05.137Z,14.51
2023-06-08T03:04:31.805Z,14.59
2023-06-08T03:06:58.623Z,14.70
2023-06-08T03:09:26.544Z,14.51
2023-06-08T03:11:53.412Z,14.49
2023-06-08T03:14:20.084Z,14.34
2023-06-08T03:16:47.596Z,14.51
2023-06-08T03:19:15.718Z,14.50
2023-06-08T03:21:43.650Z,14.54
2023-06-08T03:24:11.642Z,14.64
2023-06-08T03:26:39.639Z,14.70
2023-06-08T03:29:06.234Z,14.68
2023-06-08T03:31:38.275Z,14.64
2023-06-08T03:34:06.314Z,14.53
2023-06-08T03:36:36.584Z,14.49
2023-06-08T03:39:04.080Z,14.38
2023-06-08T03:41:30.593Z,14.29
2023-06-08T03:43:57.446Z,14.35
2023-06-08T03:46:25.373Z,14.36
2023-06-08T03:48:52.438Z,14.28
2023-06-08T03:51:22.109Z,14.30
2023-06-08T03:53:49.323Z,14.28
2023-06-08T03:56:16.165Z,14.18
2023-06-08T03:58:43.063Z,14.22
2023-06-08T04:01:13.332Z,14.15
2023-06-08T04:03:40.961Z,14.22
2023-06-08T04:06:10.155Z,14.36
2023-06-08T04:08:40.507Z,14.42
2023-06-08T04:11:10.072Z,14.35
2023-06-08T04:13:37.824Z,14.42
2023-06-08T04:16:08.511Z,14.40
2023-06-08T04:18:36.376Z,14.50
2023-06-08T04:21:06.005Z,14.54
2023-06-08T04:23:34.732Z,14.66
2023-06-08T04:26:06.339Z,14.76
2023-06-08T04:28:34.466Z,14.88
2023-06-08T04:31:01.320Z,15.03
2023-06-08T04:33:31.917Z,14.96
2023-06-08T04:35:58.906Z,15.09
2023-06-08T04:38:26.975Z,15.21
2023-06-08T04:40:55.382Z,15.35
2023-06-08T04:43:23.165Z,15.40
2023-06-08T04:46:00.944Z,15.64
2023-06-08T04:48:28.876Z,15.62
2023-06-08T04:51:05.635Z,15.68
2023-06-08T04:53:35.466Z,15.86
2023-06-08T04:56:03.972Z,15.75
2023-06-08T04:58:31.980Z,15.72
2023-06-08T05:00:59.421Z,15.79
2023-06-08T05:03:26.980Z,15.78
2023-06-08T05:05:54.136Z,15.81
2023-06-08T05:08:20.788Z,15.77
2023-06-08T05:10:47.349Z,15.56
2023-06-08T05:13:13.937Z,15.79
2023-06-08T05:15:40.701Z,15.87
2023-06-08T05:18:07.525Z,15.90
2023-06-08T05:20:34.137Z,16.02
2023-06-08T05:23:00.790Z,16.09
2023-06-08T05:25:38.004Z,16.21
2023-06-08T05:28:05.871Z,16.28
2023-06-08T05:30:32.422Z,16.38
2023-06-08T05:33:01.178Z,16.71
2023-06-08T05:35:28.139Z,16.42
2023-06-08T05:37:55.050Z,16.71
2023-06-08T05:40:21.818Z,16.88
2023-06-08T05:42:48.438Z,16.84
2023-06-08T05:45:15.109Z,16.98
2023-06-08T05:47:41.833Z,17.19
2023-06-08T05:50:09.187Z,17.18
2023-06-08T05:52:36.035Z,17.09
2023-06-08T05:55:03.018Z,17.42
2023-06-08T05:57:29.674Z,17.60
2023-06-08T05:59:56.366Z,17.44
2023-06-08T06:02:22.940Z,16.80
2023-06-08T06:04:49.831Z,17.21
2023-06-08T06:07:16.799Z,17.20
2023-06-08T06:09:43.407Z,17.42
2023-06-08T06:12:10.528Z,17.99
2023-06-08T06:14:39.505Z,17.89
2023-06-08T06:17:08.127Z,17.88
2023-06-08T06:19:38.477Z,17.90
2023-06-08T06:22:11.166Z,17.97
2023-06-08T06:24:38.527Z,18.00
2023-06-08T06:27:06.604Z,17.80
2023-06-08T06:29:33.931Z,17.82
2023-06-08T06:32:00.758Z,18.01
2023-06-08T06:34:27.470Z,18.38
2023-06-08T06:36:54.967Z,18.65
2023-06-08T06:39:21.528Z,18.72
2023-06-08T06:41:50.255Z,18.67
2023-06-08T06:44:17.059Z,19.37
2023-06-08T06:46:46.600Z,19.70
2023-06-08T06:49:13.228Z,19.95
2023-06-08T06:51:41.737Z,20.02
2023-06-08T06:54:08.430Z,19.83
2023-06-08T06:56:35.126Z,20.25
2023-06-08T06:59:01.976Z,19.42
2023-06-08T07:01:29.581Z,19.92
2023-06-08T07:03:56.196Z,19.63
2023-06-08T07:06:25.663Z,19.42
2023-06-08T07:08:52.684Z,20.20
2023-06-08T07:11:19.283Z,20.09
2023-06-08T07:13:45.851Z,20.13
2023-06-08T07:16:12.581Z,20.47
2023-06-08T07:18:39.461Z,20.20
2023-06-08T07:21:06.555Z,20.18
2023-06-08T07:24:37.971Z,20.65
2023-06-08T07:26:28.565Z,20.62
2023-06-08T07:28:58.705Z,21.22
2023-06-08T07:31:28.157Z,21.70
2023-06-08T07:33:58.891Z,20.99
2023-06-08T07:36:26.232Z,20.51
2023-06-08T07:38:52.808Z,20.72
2023-06-08T07:41:19.783Z,21.10
2023-06-08T07:43:47.008Z,21.01
2023-06-08T07:46:14.547Z,22.21
2023-06-08T07:48:41.096Z,21.95
2023-06-08T07:51:07.746Z,22.29
2023-06-08T07:53:40.808Z,21.54
2023-06-08T07:56:07.993Z,22.91
2023-06-08T07:58:34.597Z,23.62
2023-06-08T08:01:01.727Z,24.07
2023-06-08T08:03:29.449Z,23.09
2023-06-08T08:05:56.827Z,22.48
2023-06-08T08:08:23.543Z,22.86
2023-06-08T08:10:50.367Z,22.78
2023-06-08T08:13:16.924Z,22.80
2023-06-08T08:15:43.862Z,23.26
2023-06-08T08:18:10.746Z,23.67
2023-06-08T08:20:37.777Z,23.35
2023-06-08T08:23:04.296Z,23.27
2023-06-08T08:25:30.857Z,23.39
2023-06-08T08:27:57.437Z,23.64
2023-06-08T08:30:24.176Z,24.81
2023-06-08T08:32:50.774Z,25.65
2023-06-08T08:35:17.462Z,26.15
2023-06-08T08:37:44.726Z,25.37
2023-06-08T08:40:12.883Z,25.55
2023-06-08T08:42:45.354Z,25.53
2023-06-08T08:45:14.872Z,24.30
2023-06-08T08:47:43.215Z,26.31
2023-06-08T08:50:18.688Z,25.35
2023-06-08T08:52:54.441Z,25.18
2023-06-08T08:55:35.319Z,25.93
2023-06-08T08:58:03.992Z,25.80
2023-06-08T09:00:34.246Z,26.24
2023-06-08T09:03:02.500Z,26.25
2023-06-08T09:05:29.253Z,28.19
2023-06-08T09:07:57.460Z,25.78
2023-06-08T09:10:27.111Z,26.50
2023-06-08T09:12:58.672Z,27.47
2023-06-08T09:15:38.948Z,27.01
2023-06-08T09:18:17.508Z,27.47
2023-06-08T09:20:44.194Z,27.55
2023-06-08T09:23:24.579Z,27.70
2023-06-08T09:25:53.619Z,27.32
2023-06-08T09:28:29.754Z,26.94
2023-06-08T09:31:01.918Z,27.84
2023-06-08T09:33:30.985Z,26.12
2023-06-08T09:35:57.703Z,26.81
2023-06-08T09:38:28.335Z,26.15
2023-06-08T09:41:25.164Z,27.39
2023-06-08T09:43:52.706Z,25.44
2023-06-08T09:46:46.939Z,25.92
2023-06-08T09:49:15.132Z,25.14
2023-06-08T09:51:52.159Z,24.98
2023-06-08T09:54:21.826Z,24.98
2023-06-08T09:56:54.430Z,24.05
2023-06-08T09:59:23.653Z,25.09
2023-06-08T10:01:57.108Z,24.47
2023-06-08T10:04:36.640Z,24.34
2023-06-08T10:07:06.497Z,24.83
2023-06-08T10:09:37.039Z,26.06
2023-06-08T10:12:04.079Z,25.15
2023-06-08T10:14:32.838Z,26.06
2023-06-08T10:17:01.513Z,25.77
2023-06-08T10:19:28.225Z,25.62
2023-06-08T10:21:57.151Z,26.00
2023-06-08T10:24:26.291Z,27.38
2023-06-08T10:27:09.076Z,27.33
2023-06-08T10:29:35.938Z,27.77
2023-06-08T10:32:07.099Z,27.83
2023-06-08T10:34:41.851Z,26.91
2023-06-08T10:37:28.124Z,27.71
2023-06-08T10:39:55.931Z,27.93
2023-06-08T10:42:22.622Z,25.97
2023-06-08T10:44:59.194Z,27.01
2023-06-08T10:47:27.093Z,26.13
2023-06-08T10:50:04.204Z,28.26
2023-06-08T10:52:40.993Z,27.76
2023-06-08T10:55:13.349Z,27.95
2023-06-08T10:57:47.110Z,27.30
2023-06-08T11:00:32.386Z,27.70
2023-06-08T11:03:05.278Z,27.07
2023-06-08T11:05:36.905Z,26.98
2023-06-08T11:08:05.555Z,26.80
2023-06-08T11:10:33.753Z,27.85
2023-06-08T11:13:12.286Z,27.58
2023-06-08T11:15:43.901Z,25.38
2023-06-08T11:18:12.048Z,27.71
2023-06-08T11:20:43.059Z,28.35
2023-06-08T11:23:12.222Z,27.58
2023-06-08T11:25:39.880Z,27.08
2023-06-08T11:28:09.086Z,27.64
2023-06-08T11:30:38.684Z,27.98
2023-06-08T11:33:07.579Z,26.63
2023-06-08T11:35:35.335Z,28.59
2023-06-08T11:38:02.962Z,25.57
2023-06-08T11:40:31.347Z,27.52
2023-06-08T11:42:58.449Z,27.64
2023-06-08T11:45:25.595Z,26.24
2023-06-08T11:48:13.922Z,26.46
2023-06-08T11:50:52.245Z,25.40
2023-06-08T11:53:29.415Z,26.74
2023-06-08T11:55:56.895Z,26.91
2023-06-08T11:58:29.447Z,27.37
2023-06-08T12:01:10.481Z,26.35
2023-06-08T12:03:49.005Z,27.01
2023-06-08T12:06:17.315Z,26.60
2023-06-08T12:08:44.802Z,26.41
2023-06-08T12:11:13.339Z,26.47
2023-06-08T12:13:41.222Z,26.86
2023-06-08T12:16:09.807Z,26.61
2023-06-08T12:18:44.500Z,26.68
2023-06-08T12:21:16.898Z,26.50
2023-06-08T12:23:44.867Z,25.65
2023-06-08T12:26:12.158Z,25.06
2023-06-08T12:28:40.195Z,26.38
2023-06-08T12:31:07.020Z,28.59
2023-06-08T12:33:34.514Z,26.66
2023-06-08T12:36:02.505Z,26.41
2023-06-08T12:38:29.805Z,26.26
2023-06-08T12:40:57.888Z,26.18
2023-06-08T12:43:24.626Z,26.67
2023-06-08T12:45:51.651Z,28.36
2023-06-08T12:48:18.757Z,27.65
2023-06-08T12:50:45.944Z,25.83
2023-06-08T12:53:12.743Z,26.41
2023-06-08T12:55:39.400Z,27.92
2023-06-08T12:58:06.083Z,27.51
2023-06-08T13:00:32.562Z,25.78
2023-06-08T13:02:59.704Z,26.31
2023-06-08T13:05:27.088Z,26.15
2023-06-08T13:07:54.044Z,26.72
2023-06-08T13:10:21.501Z,27.79
2023-06-08T13:12:49.812Z,27.47
2023-06-08T13:15:16.711Z,26.45
2023-06-08T13:17:43.410Z,26.39
2023-06-08T13:20:11.760Z,26.71
2023-06-08T13:22:39.045Z,27.09
2023-06-08T13:25:06.672Z,27.71
2023-06-08T13:27:33.405Z,27.46
2023-06-08T13:30:01.268Z,27.89
2023-06-08T13:32:32.424Z,27.36
2023-06-08T13:34:59.042Z,27.25
2023-06-08T13:37:25.778Z,26.55
2023-06-08T13:39:53.608Z,26.61
2023-06-08T13:42:21.766Z,26.77
2023-06-08T13:44:48.959Z,26.99
2023-06-08T13:47:15.649Z,26.47
2023-06-08T13:49:43.981Z,26.71
2023-06-08T13:52:14.315Z,26.13
2023-06-08T13:54:41.237Z,26.06
2023-06-08T13:57:08.248Z,26.31
2023-06-08T13:59:35.529Z,26.61
2023-06-08T14:02:04.786Z,26.71
2023-06-08T14:04:32.169Z,26.19
2023-06-08T14:06:58.820Z,26.60
2023-06-08T14:09:25.483Z,26.18
2023-06-08T14:11:52.069Z,26.26
2023-06-08T14:14:18.759Z,26.29
2023-06-08T14:16:45.897Z,26.37
2023-06-08T14:19:13.942Z,26.02
2023-06-08T14:21:41.522Z,26.84
2023-06-08T14:24:08.979Z,26.55
2023-06-08T14:26:36.264Z,26.35
2023-06-08T14:29:04.373Z,26.40
2023-06-08T14:31:31.251Z,25.89
2023-06-08T14:33:58.394Z,25.84
2023-06-08T14:36:25.610Z,25.71
2023-06-08T14:38:52.775Z,25.57
2023-06-08T14:41:20.202Z,25.58
2023-06-08T14:43:52.023Z,25.43
2023-06-08T14:46:19.800Z,25.56
2023-06-08T14:48:46.491Z,25.62
2023-06-08T14:51:28.420Z,25.84
2023-06-08T14:54:01.961Z,25.27
2023-06-08T14:56:28.637Z,25.21
2023-06-08T14:58:55.634Z,25.80
2023-06-08T15:01:22.191Z,26.01
2023-06-08T15:03:48.872Z,25.68
2023-06-08T15:06:15.691Z,25.60
2023-06-08T15:08:42.581Z,25.68
2023-06-08T15:11:09.077Z,25.41
2023-06-08T15:13:35.759Z,25.25
2023-06-08T15:16:03.386Z,24.93
2023-06-08T15:18:32.448Z,24.83
2023-06-08T15:21:00.044Z,25.23
2023-06-08T15:23:26.914Z,25.45
2023-06-08T15:25:53.552Z,25.41
2023-06-08T15:28:20.267Z,25.27
2023-06-08T15:30:47.349Z,25.31
2023-06-08T15:33:14.178Z,25.20
2023-06-08T15:35:41.052Z,25.00
2023-06-08T15:38:08.830Z,24.85
2023-06-08T15:40:35.615Z,25.04
2023-06-08T15:43:02.360Z,24.59
2023-06-08T15:45:29.543Z,24.96
2023-06-08T15:47:56.355Z,25.44
2023-06-08T15:50:23.126Z,25.47
2023-06-08T15:52:50.254Z,25.10
2023-06-08T15:55:17.345Z,25.37
2023-06-08T15:57:44.145Z,25.31
2023-06-08T16:00:11.390Z,25.26
2023-06-08T16:02:38.562Z,25.11
2023-06-08T16:05:08.625Z,25.19
2023-06-08T16:07:35.231Z,25.11
2023-06-08T16:10:03.484Z,25.27
2023-06-08T16:12:30.505Z,25.04
2023-06-08T16:14:57.642Z,25.22
2023-06-08T16:17:24.372Z,25.26
2023-06-08T16:19:51.088Z,25.24
2023-06-08T16:22:17.796Z,25.38
2023-06-08T16:24:44.626Z,25.43
2023-06-08T16:27:11.306Z,25.40
2023-06-08T16:29:37.934Z,25.28
2023-06-08T16:32:05.056Z,24.90
2023-06-08T16:34:31.690Z,25.02
2023-06-08T16:36:58.671Z,25.20
2023-06-08T16:39:25.872Z,25.32
2023-06-08T16:41:52.581Z,25.35
2023-06-08T16:44:19.661Z,25.34
2023-06-08T16:46:46.641Z,25.29
2023-06-08T16:49:13.262Z,25.19
2023-06-08T16:51:39.832Z,25.16
2023-06-08T16:54:07.070Z,25.22
2023-06-08T16:56:34.753Z,25.34
2023-06-08T16:59:02.870Z,25.29
2023-06-08T17:01:29.592Z,25.12
2023-06-08T17:03:57.188Z,24.97
2023-06-08T17:06:25.138Z,25.21
2023-06-08T17:08:51.821Z,25.09
2023-06-08T17:11:18.533Z,25.01
2023-06-08T17:13:45.187Z,25.07
2023-06-08T17:16:11.785Z,25.13
2023-06-08T17:18:39.553Z,25.07
2023-06-08T17:21:08.693Z,25.19
2023-06-08T17:23:35.844Z,25.03
2023-06-08T17:26:02.519Z,25.19
2023-06-08T17:28:29.183Z,25.31
2023-06-08T17:30:55.857Z,25.13
2023-06-08T17:33:22.841Z,25.13
2023-06-08T17:35:49.708Z,25.20
2023-06-08T17:38:16.389Z,24.92
2023-06-08T17:40:42.992Z,24.78
2023-06-08T17:43:09.526Z,24.95
2023-06-08T17:45:36.386Z,24.90
2023-06-08T17:48:03.066Z,24.74
2023-06-08T17:50:29.728Z,24.57
2023-06-08T17:53:01.086Z,24.84
2023-06-08T17:55:29.035Z,24.64
2023-06-08T17:57:57.208Z,24.51
2023-06-08T18:00:25.135Z,24.45
2023-06-08T18:02:52.203Z,24.45
2023-06-08T18:05:19.546Z,24.34
2023-06-08T18:07:46.186Z,24.39
2023-06-08T18:10:14.588Z,24.14
2023-06-08T18:12:42.672Z,24.11
2023-06-08T18:15:09.744Z,24.29
2023-06-08T18:17:36.552Z,23.94
2023-06-08T18:20:06.451Z,24.08
2023-06-08T18:22:33.656Z,23.94
2023-06-08T18:25:02.030Z,23.94
2023-06-08T18:27:28.926Z,23.64
2023-06-08T18:29:55.798Z,23.69
2023-06-08T18:32:22.524Z,23.49
2023-06-08T18:34:49.124Z,23.49
2023-06-08T18:37:16.979Z,23.33
2023-06-08T18:39:57.087Z,23.38
2023-06-08T18:42:25.149Z,23.30
2023-06-08T18:44:51.654Z,23.24
2023-06-08T18:47:18.292Z,23.04
2023-06-08T18:49:46.477Z,22.95
2023-06-08T18:52:13.396Z,22.94
2023-06-08T18:54:40.766Z,22.91
2023-06-08T18:57:08.030Z,22.81
2023-06-08T18:59:34.714Z,22.71
2023-06-08T19:02:01.472Z,22.84
2023-06-08T19:04:28.310Z,22.68
2023-06-08T19:06:54.975Z,22.67
2023-06-08T19:09:25.709Z,22.52
2023-06-08T19:11:52.851Z,22.58
2023-06-08T19:14:19.820Z,22.55
2023-06-08T19:16:48.908Z,22.55
2023-06-08T19:19:18.942Z,22.43
2023-06-08T19:21:45.604Z,22.22
2023-06-08T19:24:12.588Z,22.25
2023-06-08T19:26:39.978Z,22.21
2023-06-08T19:29:08.588Z,22.29
2023-06-08T19:31:35.264Z,22.19
2023-06-08T19:34:02.455Z,22.04
2023-06-08T19:36:29.221Z,22.17
2023-06-08T19:38:56.143Z,22.04
2023-06-08T19:41:23.482Z,21.96
2023-06-08T19:43:51.326Z,21.87
2023-06-08T19:46:20.497Z,21.80
2023-06-08T19:48:48.504Z,21.83
2023-06-08T19:51:15.137Z,21.78
2023-06-08T19:53:42.799Z,21.83
2023-06-08T19:56:09.471Z,21.78
2023-06-08T19:58:36.197Z,21.72
2023-06-08T20:01:02.733Z,21.59
2023-06-08T20:03:29.709Z,21.59
2023-06-08T20:05:56.709Z,21.53
2023-06-08T20:08:23.402Z,21.29
2023-06-08T20:10:51.228Z,21.10
2023-06-08T20:13:18.020Z,20.67
2023-06-08T20:15:44.890Z,20.50
2023-06-08T20:18:11.514Z,20.19
2023-06-08T20:20:38.177Z,19.87
2023-06-08T20:23:05.416Z,19.84
2023-06-08T20:25:32.261Z,19.79
2023-06-08T20:27:58.861Z,19.71
2023-06-08T20:30:27.409Z,19.63
2023-06-08T20:32:54.199Z,19.46
2023-06-08T20:35:22.214Z,19.26
2023-06-08T20:37:48.863Z,19.29
2023-06-08T20:40:15.516Z,19.33
2023-06-08T20:42:42.320Z,19.28
2023-06-08T20:45:09.461Z,19.14
2023-06-08T20:47:36.655Z,19.24
2023-06-08T20:50:04.316Z,19.11
2023-06-08T20:52:31.233Z,19.29
2023-06-08T20:54:58.039Z,19.50
2023-06-08T20:57:24.719Z,19.49
2023-06-08T20:59:52.056Z,19.43
2023-06-08T21:02:18.668Z,19.36
2023-06-08T21:04:46.184Z,19.35
2023-06-08T21:07:13.157Z,19.31
2023-06-08T21:09:39.823Z,19.22
2023-06-08T21:12:07.936Z,19.21
2023-06-08T21:14:34.484Z,19.13
2023-06-08T21:17:01.010Z,19.05
2023-06-08T21:19:27.594Z,19.10
2023-06-08T21:21:58.685Z,19.14
2023-06-08T21:24:28.132Z,19.00
2023-06-08T21:26:56.430Z,18.90
2023-06-08T21:29:23.561Z,18.77
2023-06-08T21:31:50.196Z,18.86
2023-06-08T21:34:16.876Z,18.67
2023-06-08T21:36:43.414Z,18.84
2023-06-08T21:39:09.959Z,18.41
2023-06-08T21:41:36.550Z,18.34
2023-06-08T21:44:03.220Z,18.08
2023-06-08T21:46:29.819Z,18.11
2023-06-08T21:48:56.687Z,18.09
2023-06-08T21:51:23.472Z,17.96
2023-06-08T21:53:50.171Z,17.90
2023-06-08T21:56:16.845Z,17.88
2023-06-08T21:58:43.457Z,17.79
2023-06-08T22:01:10.090Z,17.63
2023-06-08T22:03:37.011Z,17.51
2023-06-08T22:06:03.642Z,17.37
2023-06-08T22:08:30.244Z,17.31
2023-06-08T22:10:57.110Z,17.16
2023-06-08T22:13:25.777Z,17.29
2023-06-08T22:15:53.548Z,17.19
2023-06-08T22:18:20.081Z,17.01
2023-06-08T22:20:48.127Z,16.95
2023-06-08T22:23:14.891Z,16.93
2023-06-08T22:25:42.657Z,16.70
2023-06-08T22:28:09.834Z,16.77
2023-06-08T22:30:37.113Z,16.73
2023-06-08T22:33:03.945Z,16.43
2023-06-08T22:35:30.524Z,16.44
2023-06-08T22:37:57.156Z,16.39
2023-06-08T22:40:23.768Z,16.24
2023-06-08T22:42:50.366Z,16.07
2023-06-08T22:45:16.972Z,16.06
2023-06-08T22:47:43.542Z,15.98
2023-06-08T22:50:10.806Z,15.89
2023-06-08T22:52:37.539Z,15.84
2023-06-08T22:55:04.861Z,15.82
2023-06-08T22:57:31.585Z,15.73
2023-06-08T22:59:58.308Z,15.71
2023-06-08T23:02:25.236Z,15.62
2023-06-08T23:04:52.960Z,15.50
2023-06-08T23:07:21.557Z,15.44
2023-06-08T23:09:50.310Z,15.40
2023-06-08T23:12:17.282Z,15.35
2023-06-08T23:14:49.425Z,15.37
2023-06-08T23:17:19.387Z,15.29
2023-06-08T23:19:49.725Z,15.27
2023-06-08T23:22:23.470Z,15.30
2023-06-08T23:24:51.739Z,15.13
2023-06-08T23:27:18.476Z,15.21
2023-06-08T23:29:49.019Z,15.02
2023-06-08T23:32:19.924Z,15.03
2023-06-08T23:34:48.811Z,14.92
2023-06-08T23:37:17.630Z,15.01
2023-06-08T23:39:48.084Z,14.81
2023-06-08T23:42:17.909Z,14.91
2023-06-08T23:44:44.867Z,14.88
2023-06-08T23:47:14.146Z,14.78
2023-06-08T23:49:41.289Z,14.80
2023-06-08T23:52:08.756Z,14.92
2023-06-08T23:54:35.912Z,14.93
2023-06-08T23:57:02.813Z,14.90
2023-06-08T23:59:29.418Z,14.94
